Time,TemperatureF,DewpointF,PressureIn,WindDirection,WindDirectionDegrees,WindSpeedMPH,WindSpeedGustMPH,Humidity,HourlyPrecipIn,Conditions,Clouds,dailyrainin,SoftwareType,DateUTC
2013-04-09 03:27:00,35.1,34.1,29.91,ENE,67,4.2,-999.0,96,-99.99,,,0.07,Acu-Link.com,2013-04-09 07:27:00,
2013-04-09 03:43:00,34.5,34.2,29.91,SSE,157,6.3,-999.0,99,-99.99,,,0.08,Acu-Link.com,2013-04-09 07:43:00,
2013-04-09 03:58:00,34.3,34.0,29.88,ESE,112,7.8,-999.0,99,-99.99,,,0.08,Acu-Link.com,2013-04-09 07:58:00,
2013-04-09 04:15:00,34.2,33.9,29.88,SSE,157,4.7,-999.0,99,-99.99,,,0.10,Acu-Link.com,2013-04-09 08:15:00,
2013-04-09 04:30:00,34.2,33.9,29.87,SE,135,4.7,-999.0,99,-99.99,,,0.10,Acu-Link.com,2013-04-09 08:30:00,
2013-04-09 04:45:00,34.3,34.0,29.87,SE,135,4.7,-999.0,99,-99.99,,,0.11,Acu-Link.com,2013-04-09 08:45:00,
2013-04-09 05:00:00,34.5,34.2,29.86,ESE,112,10.9,-999.0,99,-99.99,,,0.13,Acu-Link.com,2013-04-09 09:00:00,
2013-04-09 05:15:00,34.9,34.6,29.85,ESE,112,3.7,-999.0,99,-99.99,,,0.15,Acu-Link.com,2013-04-09 09:15:00,
2013-04-09 05:31:00,34.7,34.4,29.86,South,180,6.3,-999.0,99,-99.99,,,0.16,Acu-Link.com,2013-04-09 09:31:00,
2013-04-09 05:46:00,34.7,34.4,29.85,SE,135,4.7,-999.0,99,-99.99,,,0.17,Acu-Link.com,2013-04-09 09:46:00,
2013-04-09 06:16:00,34.9,34.6,29.84,SE,135,5.3,-999.0,99,-99.99,,,0.20,Acu-Link.com,2013-04-09 10:16:00,
2013-04-09 06:31:00,35.1,34.8,29.83,SE,135,4.7,-999.0,99,-99.99,,,0.21,Acu-Link.com,2013-04-09 10:31:00,
2013-04-09 06:47:00,35.2,34.9,29.82,ESE,112,5.8,-999.0,99,-99.99,,,0.26,Acu-Link.com,2013-04-09 10:47:00,
2013-04-09 07:02:00,35.2,34.9,29.81,ESE,112,6.3,-999.0,99,-99.99,,,0.27,Acu-Link.com,2013-04-09 11:02:00,
2013-04-09 07:17:00,35.2,34.9,29.81,ESE,112,9.4,-999.0,99,-99.99,,,0.28,Acu-Link.com,2013-04-09 11:17:00,
2013-04-09 07:32:00,35.4,35.1,29.81,SSE,157,5.8,-999.0,99,-99.99,,,0.28,Acu-Link.com,2013-04-09 11:32:00,
2013-04-09 07:48:00,35.8,35.5,29.80,ESE,112,8.3,-999.0,99,-99.99,,,0.28,Acu-Link.com,2013-04-09 11:48:00,
2013-04-09 08:03:00,36.0,35.7,29.80,ENE,67,6.8,-999.0,99,-99.99,,,0.28,Acu-Link.com,2013-04-09 12:03:00,
2013-04-09 08:18:00,36.3,36.0,29.79,ESE,112,4.7,-999.0,99,-99.99,,,0.28,Acu-Link.com,2013-04-09 12:18:00,
2013-04-09 08:33:00,36.3,36.0,29.79,ESE,112,3.7,-999.0,99,-99.99,,,0.28,Acu-Link.com,2013-04-09 12:33:00,
2013-04-09 09:34:00,36.5,36.2,29.80,SSE,157,2.2,-999.0,99,-99.99,,,0.30,Acu-Link.com,2013-04-09 13:34:00,
2013-04-09 09:49:00,36.9,36.6,29.80,NNE,22,2.2,-999.0,99,-99.99,,,0.33,Acu-Link.com,2013-04-09 13:49:00,
2013-04-09 10:05:00,36.9,36.6,29.80,ESE,112,0.0,-999.0,99,-99.99,,,0.35,Acu-Link.com,2013-04-09 14:05:00,
2013-04-09 10:20:00,37.0,36.7,29.81,ESE,112,3.7,-999.0,99,-99.99,,,0.37,Acu-Link.com,2013-04-09 14:20:00,
2013-04-09 10:35:00,37.2,36.9,29.81,ESE,112,3.2,-999.0,99,-99.99,,,0.38,Acu-Link.com,2013-04-09 14:35:00,
2013-04-09 10:50:00,37.4,37.1,29.82,ENE,67,1.7,-999.0,99,-99.99,,,0.39,Acu-Link.com,2013-04-09 14:50:00,
2013-04-09 11:06:00,37.8,37.5,29.82,ENE,67,2.2,-999.0,99,-99.99,,,0.40,Acu-Link.com,2013-04-09 15:06:00,
2013-04-09 11:27:00,38.1,37.8,29.81,East,90,0.0,-999.0,99,-99.99,,,0.40,Acu-Link.com,2013-04-09 15:27:00,
2013-04-09 11:42:00,38.5,38.2,29.82,North,0,0.0,-999.0,99,-99.99,,,0.40,Acu-Link.com,2013-04-09 15:42:00,
2013-04-09 11:57:00,38.7,38.4,29.83,West,270,2.7,-999.0,99,-99.99,,,0.40,Acu-Link.com,2013-04-09 15:57:00,
2013-04-09 12:12:00,39.0,38.7,29.83,West,270,8.3,-999.0,99,-99.99,,,0.40,Acu-Link.com,2013-04-09 16:12:00,
2013-04-09 12:27:00,38.5,38.2,29.83,West,270,4.7,-999.0,99,-99.99,,,0.41,Acu-Link.com,2013-04-09 16:27:00,
2013-04-09 12:43:00,37.6,37.3,29.86,West,270,9.9,-999.0,99,-99.99,,,0.41,Acu-Link.com,2013-04-09 16:43:00,
2013-04-09 12:58:00,37.0,36.7,29.85,ESE,112,3.7,-999.0,99,-99.99,,,0.41,Acu-Link.com,2013-04-09 16:58:00,
2013-04-09 13:13:00,36.7,36.4,29.87,SSW,202,3.7,-999.0,99,-99.99,,,0.41,Acu-Link.com,2013-04-09 17:13:00,
2013-04-09 13:28:00,36.1,35.8,29.89,West,270,4.2,-999.0,99,-99.99,,,0.41,Acu-Link.com,2013-04-09 17:28:00,
2013-04-09 13:59:00,35.8,35.5,29.91,WSW,247,6.3,-999.0,99,-99.99,,,0.41,Acu-Link.com,2013-04-09 17:59:00,
2013-04-09 14:14:00,35.6,35.3,29.90,South,180,1.7,-999.0,99,-99.99,,,0.41,Acu-Link.com,2013-04-09 18:14:00,
2013-04-09 14:29:00,35.4,35.1,29.92,SE,135,3.2,-999.0,99,-99.99,,,0.41,Acu-Link.com,2013-04-09 18:29:00,
2013-04-09 14:44:00,35.1,34.8,29.91,East,90,3.2,-999.0,99,-99.99,,,0.41,Acu-Link.com,2013-04-09 18:44:00,
2013-04-09 14:59:00,34.3,34.0,29.92,NW,315,2.7,-999.0,99,-99.99,,,0.41,Acu-Link.com,2013-04-09 18:59:00,
2013-04-09 15:15:00,34.0,33.7,29.93,West,270,2.7,-999.0,99,-99.99,,,0.41,Acu-Link.com,2013-04-09 19:15:00,
2013-04-09 15:30:00,33.8,33.5,29.93,West,270,4.7,-999.0,99,-99.99,,,0.41,Acu-Link.com,2013-04-09 19:30:00,
2013-04-09 15:45:00,33.6,33.3,29.92,SSW,202,4.2,-999.0,99,-99.99,,,0.41,Acu-Link.com,2013-04-09 19:45:00,
2013-04-09 16:00:00,33.4,33.1,29.93,SSW,202,1.7,-999.0,99,-99.99,,,0.41,Acu-Link.com,2013-04-09 20:00:00,
2013-04-09 16:31:00,33.6,33.3,29.91,West,270,3.2,-999.0,99,-99.99,,,0.41,Acu-Link.com,2013-04-09 20:31:00,
2013-04-09 16:46:00,33.4,33.1,29.89,West,270,5.3,-999.0,99,-99.99,,,0.41,Acu-Link.com,2013-04-09 20:46:00,
2013-04-09 17:01:00,33.4,33.1,29.91,WSW,247,7.8,-999.0,99,-99.99,,,0.41,Acu-Link.com,2013-04-09 21:01:00,
2013-04-09 17:16:00,33.6,33.3,29.91,SW,225,4.2,-999.0,99,-99.99,,,0.41,Acu-Link.com,2013-04-09 21:16:00,
2013-04-09 17:47:00,33.3,33.0,29.92,WNW,292,5.8,-999.0,99,-99.99,,,0.41,Acu-Link.com,2013-04-09 21:47:00,
2013-04-09 18:02:00,33.4,33.1,29.95,West,270,5.8,-999.0,99,-99.99,,,0.41,Acu-Link.com,2013-04-09 22:02:00,
2013-04-09 18:17:00,33.4,33.1,29.96,West,270,8.3,-999.0,99,-99.99,,,0.41,Acu-Link.com,2013-04-09 22:17:00,
2013-04-09 18:32:00,33.3,33.0,29.97,West,270,5.3,-999.0,99,-99.99,,,0.41,Acu-Link.com,2013-04-09 22:32:00,
2013-04-09 19:03:00,33.3,33.0,29.96,SW,225,2.7,-999.0,99,-99.99,,,0.41,Acu-Link.com,2013-04-09 23:03:00,
2013-04-09 19:18:00,33.3,33.0,29.94,SW,225,4.2,-999.0,99,-99.99,,,0.41,Acu-Link.com,2013-04-09 23:18:00,
2013-04-09 19:33:00,33.1,32.8,29.97,West,270,4.7,-999.0,99,-99.99,,,0.41,Acu-Link.com,2013-04-09 23:33:00,
2013-04-09 19:49:00,33.1,32.8,29.97,West,270,7.8,-999.0,99,-99.99,,,0.41,Acu-Link.com,2013-04-09 23:49:00,
2013-04-09 20:04:00,33.1,32.8,29.98,West,270,3.7,-999.0,99,-99.99,,,0.41,Acu-Link.com,2013-04-10 00:04:00,
2013-04-09 20:19:00,33.1,32.8,29.96,West,270,0.0,-999.0,99,-99.99,,,0.41,Acu-Link.com,2013-04-10 00:19:00,
2013-04-09 20:34:00,33.1,32.8,29.97,WSW,247,2.7,-999.0,99,-99.99,,,0.41,Acu-Link.com,2013-04-10 00:34:00,
2013-04-09 20:49:00,33.1,32.8,29.97,South,180,0.0,-999.0,99,-99.99,,,0.41,Acu-Link.com,2013-04-10 00:49:00,
2013-04-09 21:05:00,33.1,32.8,29.97,SSE,157,0.0,-999.0,99,-99.99,,,0.41,Acu-Link.com,2013-04-10 01:05:00,
2013-04-09 21:20:00,33.1,32.8,29.96,SSW,202,0.0,-999.0,99,-99.99,,,0.42,Acu-Link.com,2013-04-10 01:20:00,
2013-04-09 21:35:00,33.1,32.8,29.96,SW,225,0.0,-999.0,99,-99.99,,,0.42,Acu-Link.com,2013-04-10 01:35:00,
2013-04-09 21:50:00,33.1,32.8,29.95,NE,45,0.0,-999.0,99,-99.99,,,0.42,Acu-Link.com,2013-04-10 01:50:00,
2013-04-09 22:05:00,33.1,32.8,29.94,ESE,112,0.0,-999.0,99,-99.99,,,0.42,Acu-Link.com,2013-04-10 02:05:00,
2013-04-09 22:21:00,33.1,32.8,29.94,East,90,0.0,-999.0,99,-99.99,,,0.42,Acu-Link.com,2013-04-10 02:21:00,
2013-04-09 22:51:00,33.1,32.8,29.94,NNE,22,0.0,-999.0,99,-99.99,,,0.42,Acu-Link.com,2013-04-10 02:51:00,
2013-04-09 23:06:00,33.1,32.8,29.93,East,90,0.0,-999.0,99,-99.99,,,0.42,Acu-Link.com,2013-04-10 03:06:00,
2013-04-09 23:21:00,33.1,32.8,29.92,South,180,0.0,-999.0,99,-99.99,,,0.42,Acu-Link.com,2013-04-10 03:21:00,